Time;durP1;ratioP1;P1;durP2;ratioP2;P2;SDS_P1;SDS_P2;PMS_P1;PMS_P2;Temp;Humidity;BMP_temperature;BMP_pressure;BME280_temperature;BME280_humidity;BME280_pressure;Samples;Min_cycle;Max_cycle;Signal;HPM_P1;HPM_P2
2022/04/30 00:00:29;;;;;;;12.10;7.83;;;;;;;11.66;71.00;99224.63;5051539;28;20190;-50
2022/04/30 00:02:58;;;;;;;13.87;7.17;;;;;;;11.75;70.37;99227.34;5064145;28;20279;-50
2022/04/30 00:05:26;;;;;;;13.47;9.50;;;;;;;11.85;68.60;99222.91;5071054;28;20676;-50
2022/04/30 00:07:54;;;;;;;16.30;8.70;;;;;;;11.87;69.11;99214.94;5071270;28;20188;-50
2022/04/30 00:10:21;;;;;;;10.10;8.13;;;;;;;11.91;69.07;99219.72;5071417;28;20273;-50
2022/04/30 00:12:49;;;;;;;11.77;8.70;;;;;;;12.02;70.11;99217.91;5071135;28;20239;-50
2022/04/30 00:15:15;;;;;;;19.60;11.27;;;;;;;12.01;69.14;99222.34;5069126;28;20222;-50
2022/04/30 00:17:42;;;;;;;18.67;11.23;;;;;;;12.06;68.55;99219.28;5064021;28;20197;-50
2022/04/30 00:20:09;;;;;;;18.37;11.37;;;;;;;12.20;68.32;99224.03;5069760;28;20196;-50
2022/04/30 00:22:36;;;;;;;20.20;11.93;;;;;;;12.34;68.05;99216.63;5063139;28;20657;-51
2022/04/30 00:25:05;;;;;;;20.67;12.40;;;;;;;12.43;67.79;99220.16;5050767;28;20268;-50
2022/04/30 00:27:34;;;;;;;17.90;11.80;;;;;;;12.49;67.42;99220.41;5050537;28;20201;-50
2022/04/30 00:30:01;;;;;;;20.13;12.13;;;;;;;12.58;66.92;99228.34;5050941;28;20672;-50
2022/04/30 00:32:28;;;;;;;16.17;11.13;;;;;;;12.60;66.09;99218.53;5050905;28;20196;-51
2022/04/30 00:34:55;;;;;;;18.57;11.90;;;;;;;12.55;67.62;99226.81;5059035;28;20311;-50
2022/04/30 00:37:21;;;;;;;19.90;12.13;;;;;;;12.51;67.88;99213.22;5053676;28;20228;-50
2022/04/30 00:39:49;;;;;;;19.63;11.47;;;;;;;12.46;67.41;99220.69;5050748;28;20197;-50
2022/04/30 00:42:17;;;;;;;24.37;13.23;;;;;;;12.45;68.29;99218.22;5050651;28;20242;-51
2022/04/30 00:44:47;;;;;;;19.40;11.87;;;;;;;12.39;68.58;99220.44;5050615;28;20308;-51
2022/04/30 00:47:15;;;;;;;17.90;11.60;;;;;;;12.34;69.90;99221.88;5050982;28;20697;-50
2022/04/30 00:49:42;;;;;;;16.93;10.80;;;;;;;12.21;69.61;99228.28;5050481;28;20247;-48
2022/04/30 00:52:12;;;;;;;20.23;11.80;;;;;;;12.17;70.19;99215.66;5054203;28;20538;-50
2022/04/30 00:54:41;;;;;;;19.27;11.67;;;;;;;12.22;70.18;99224.69;5060147;28;20693;-50
2022/04/30 00:57:11;;;;;;;17.50;11.80;;;;;;;12.13;71.76;99222.16;5050850;28;20215;-49
2022/04/30 00:59:41;;;;;;;18.53;12.23;;;;;;;12.06;71.32;99219.28;5050588;28;20202;-51
2022/04/30 01:02:10;;;;;;;16.70;11.47;;;;;;;12.02;72.28;99223.16;5049376;28;20197;-49
2022/04/30 01:04:57;;;;;;;16.80;12.07;;;;;;;11.93;73.03;99219.59;5050432;28;20231;-50
2022/04/30 01:07:24;;;;;;;21.63;12.27;;;;;;;12.03;71.77;99219.56;5050590;28;20194;-50
2022/04/30 01:09:53;;;;;;;20.67;12.17;;;;;;;11.95;74.26;99217.66;5062864;28;20189;-50
2022/04/30 01:12:23;;;;;;;25.03;12.37;;;;;;;11.90;74.18;99209.41;5070547;28;20559;-52
2022/04/30 01:14:54;;;;;;;27.13;13.70;;;;;;;11.90;72.47;99210.22;5070356;28;20664;-50
2022/04/30 01:17:21;;;;;;;21.27;12.30;;;;;;;11.87;73.22;99207.91;5067711;28;20188;-50
2022/04/30 01:19:50;;;;;;;20.50;13.10;;;;;;;11.82;73.46;99208.34;5062002;28;20188;-50
2022/04/30 01:22:22;;;;;;;21.73;13.43;;;;;;;11.78;73.99;99206.16;5065369;28;20237;-51
2022/04/30 01:24:55;;;;;;;20.53;12.77;;;;;;;11.76;75.14;99211.53;5049976;28;20276;-50
2022/04/30 01:27:25;;;;;;;19.87;12.30;;;;;;;11.70;75.35;99204.25;5051272;28;20200;-50
2022/04/30 01:29:53;;;;;;;16.13;11.47;;;;;;;11.63;76.85;99198.81;5053882;28;20193;-50
2022/04/30 01:38:00;;;;;;;17.57;12.17;;;;;;;11.50;78.66;99193.06;5054776;28;20322;-50
2022/04/30 01:40:29;;;;;;;16.30;11.27;;;;;;;11.46;78.53;99199.53;5054673;28;20189;-50
2022/04/30 01:43:00;;;;;;;19.97;11.20;;;;;;;11.40;78.25;99206.16;5053239;28;20554;-49
2022/04/30 01:45:46;;;;;;;17.10;11.37;;;;;;;11.36;79.26;99197.78;5054480;28;20290;-49
2022/04/30 01:48:14;;;;;;;15.93;11.27;;;;;;;11.32;79.28;99196.41;5054436;28;20267;-50
2022/04/30 01:50:41;;;;;;;19.80;11.23;;;;;;;11.35;79.32;99196.13;5054574;28;20220;-50
2022/04/30 01:53:09;;;;;;;20.40;11.40;;;;;;;11.39;79.13;99190.63;5054781;28;20196;-50
2022/04/30 01:55:37;;;;;;;20.43;12.90;;;;;;;11.44;77.63;99197.06;5054240;28;20297;-50
2022/04/30 01:58:23;;;;;;;20.37;13.90;;;;;;;11.44;77.59;99183.97;5055088;28;20256;-51
2022/04/30 02:00:50;;;;;;;19.80;12.23;;;;;;;11.42;78.69;99195.56;5054395;28;20577;-50
2022/04/30 02:03:17;;;;;;;16.80;12.23;;;;;;;11.40;79.43;99189.66;5054275;28;20181;-50
2022/04/30 02:05:44;;;;;;;17.53;12.50;;;;;;;11.37;79.11;99196.81;5062255;28;20692;-49
2022/04/30 02:08:13;;;;;;;20.93;12.37;;;;;;;11.43;78.41;99199.81;5066300;28;20618;-50
2022/04/30 02:10:43;;;;;;;18.90;12.50;;;;;;;11.45;77.94;99192.66;5060052;28;20548;-49
2022/04/30 02:13:11;;;;;;;19.53;12.63;;;;;;;11.46;78.08;99189.91;5061935;28;20271;-50
2022/04/30 02:15:40;;;;;;;21.37;12.83;;;;;;;11.51;78.18;99195.53;5061826;28;20225;-50
2022/04/30 02:18:12;;;;;;;24.23;14.03;;;;;;;11.66;76.22;99185.41;5063640;28;20196;-52
2022/04/30 02:20:42;;;;;;;21.87;13.50;;;;;;;11.71;74.86;99189.38;5062063;28;20690;-49
2022/04/30 02:23:09;;;;;;;21.97;13.10;;;;;;;11.79;74.34;99199.94;5060434;28;20296;-49
2022/04/30 02:25:39;;;;;;;22.33;13.37;;;;;;;11.74;73.73;99189.94;5065165;28;20235;-49
2022/04/30 02:28:08;;;;;;;22.20;13.17;;;;;;;11.73;74.13;99185.66;5064688;28;20188;-50
2022/04/30 02:30:37;;;;;;;21.13;12.80;;;;;;;11.66;74.62;99179.38;5063856;28;20255;-49
2022/04/30 02:33:06;;;;;;;17.87;12.43;;;;;;;11.71;76.09;99181.53;5061164;28;20275;-49
2022/04/30 02:35:35;;;;;;;21.07;13.03;;;;;;;11.71;73.90;99173.69;5062219;28;20208;-49
2022/04/30 02:38:06;;;;;;;21.70;12.93;;;;;;;11.67;74.54;99166.13;5062473;28;20192;-49
2022/04/30 02:40:33;;;;;;;20.97;12.47;;;;;;;11.64;74.19;99158.63;5062473;28;20229;-49
2022/04/30 02:43:06;;;;;;;22.87;14.50;;;;;;;11.66;75.18;99161.06;5061733;28;20192;-50
2022/04/30 02:45:36;;;;;;;21.20;13.43;;;;;;;11.62;75.71;99157.94;5060788;28;20214;-49
2022/04/30 02:48:06;;;;;;;23.43;13.93;;;;;;;11.61;74.73;99158.91;5061994;28;20699;-49
2022/04/30 02:50:34;;;;;;;24.30;13.77;;;;;;;11.63;75.92;99156.13;5063230;28;20238;-49
2022/04/30 02:53:01;;;;;;;21.70;13.17;;;;;;;11.56;76.35;99168.13;5061732;28;20192;-49
2022/04/30 02:55:29;;;;;;;21.63;14.47;;;;;;;11.53;77.02;99164.03;5059322;28;20321;-49
2022/04/30 03:00:57;;;;;;;20.53;13.27;;;;;;;11.54;76.92;99165.66;5019023;28;20194;-49
2022/04/30 03:03:54;;;;;;;24.00;13.97;;;;;;;11.51;78.33;99173.78;5058049;28;20216;-49
2022/04/30 03:06:22;;;;;;;23.93;14.03;;;;;;;11.55;77.17;99166.47;5062311;28;20185;-50
2022/04/30 03:08:49;;;;;;;29.40;16.17;;;;;;;11.56;77.65;99165.50;5061756;28;20197;-50
2022/04/30 03:11:19;;;;;;;28.60;15.47;;;;;;;11.52;78.88;99167.59;5063108;28;20601;-50
2022/04/30 03:13:47;;;;;;;30.73;17.43;;;;;;;11.47;79.48;99154.13;5062064;28;20553;-50
2022/04/30 03:21:45;;;;;;;26.27;16.83;;;;;;;11.29;85.89;99154.88;5062260;28;20184;-50
2022/04/30 03:24:15;;;;;;;32.70;17.10;;;;;;;11.23;86.75;99160.66;5060402;28;20208;-50
2022/04/30 03:26:43;;;;;;;31.20;20.53;;;;;;;11.21;85.45;99160.78;5061815;28;20195;-51
2022/04/30 03:29:10;;;;;;;32.13;18.53;;;;;;;11.17;83.47;99156.81;5062480;28;20314;-49
2022/04/30 03:31:39;;;;;;;31.07;18.80;;;;;;;11.13;85.25;99155.44;5060704;28;20192;-49
2022/04/30 03:34:08;;;;;;;26.63;18.17;;;;;;;11.12;87.07;99159.06;5060857;28;20253;-50
2022/04/30 03:36:35;;;;;;;27.70;18.43;;;;;;;11.05;87.62;99155.38;5061194;28;20246;-49
2022/04/30 03:39:03;;;;;;;32.03;19.00;;;;;;;11.03;90.14;99154.69;5061459;28;20194;-50
2022/04/30 03:41:30;;;;;;;27.10;18.97;;;;;;;11.00;90.89;99152.34;5061644;28;20327;-50
2022/04/30 03:43:57;;;;;;;28.33;18.87;;;;;;;10.97;91.57;99155.25;5063327;28;20213;-50
2022/04/30 03:46:25;;;;;;;31.57;19.80;;;;;;;10.95;93.11;99149.34;5059238;28;20290;-50
2022/04/30 03:48:56;;;;;;;32.70;20.83;;;;;;;10.92;91.72;99153.03;5063062;28;20268;-51
2022/04/30 03:51:24;;;;;;;33.37;20.57;;;;;;;10.91;89.40;99161.81;5062494;28;20203;-51
2022/04/30 03:53:52;;;;;;;35.10;21.87;;;;;;;10.87;91.32;99152.63;5064953;28;20211;-51
2022/04/30 03:56:21;;;;;;;32.93;22.10;;;;;;;10.86;90.33;99151.81;5063910;28;20358;-51
2022/04/30 03:58:48;;;;;;;33.80;21.90;;;;;;;10.90;91.56;99144.50;5066080;28;20188;-50
2022/04/30 04:01:35;;;;;;;38.50;23.20;;;;;;;10.83;92.05;99151.25;5066064;28;20198;-51
2022/04/30 04:04:04;;;;;;;35.23;21.87;;;;;;;10.86;91.53;99145.75;5063943;28;20702;-51
2022/04/30 04:06:32;;;;;;;35.57;21.87;;;;;;;10.80;93.03;99147.16;5065163;28;20184;-51
2022/04/30 04:08:59;;;;;;;38.60;22.27;;;;;;;10.77;91.83;99144.81;5059783;28;20192;-51
2022/04/30 04:11:27;;;;;;;34.37;21.93;;;;;;;10.78;92.98;99146.47;5060014;28;20187;-51
2022/04/30 04:19:26;;;;;;;35.57;22.00;;;;;;;10.69;93.74;99142.88;5064108;28;20218;-51
2022/04/30 04:21:53;;;;;;;37.50;22.07;;;;;;;10.68;94.04;99138.63;5065065;28;20273;-52
2022/04/30 04:27:05;;;;;;;38.20;22.37;;;;;;;10.65;96.15;99140.69;5063842;28;20254;-51
2022/04/30 04:29:32;;;;;;;32.60;21.33;;;;;;;10.66;96.48;99145.75;5065129;28;20195;-51
2022/04/30 04:32:00;;;;;;;33.33;20.70;;;;;;;10.62;96.55;99136.56;5064626;28;20575;-51
2022/04/30 04:34:28;;;;;;;35.83;22.33;;;;;;;10.59;96.06;99134.25;5064098;28;20215;-53
2022/04/30 04:36:55;;;;;;;31.47;20.43;;;;;;;10.53;96.32;99140.84;5065145;28;20678;-51
2022/04/30 04:39:22;;;;;;;34.13;21.03;;;;;;;10.52;96.93;99136.59;5063822;28;20230;-50
2022/04/30 04:41:49;;;;;;;29.90;20.77;;;;;;;10.46;98.02;99135.34;5064083;28;20294;-51
2022/04/30 04:44:17;;;;;;;27.97;19.47;;;;;;;10.51;98.12;99134.94;5062537;28;20247;-49
2022/04/30 04:46:45;;;;;;;30.03;19.47;;;;;;;10.51;99.08;99136.72;5064217;28;20195;-50
2022/04/30 04:49:11;;;;;;;38.27;21.03;;;;;;;10.44;99.73;99139.06;5062734;28;20300;-50
2022/04/30 04:51:40;;;;;;;29.17;18.80;;;;;;;10.44;99.35;99145.13;5065561;28;20225;-50
2022/04/30 04:54:07;;;;;;;33.67;20.83;;;;;;;10.42;100.00;99146.19;5062806;28;20208;-50
2022/04/30 04:56:35;;;;;;;30.87;21.07;;;;;;;10.41;100.00;99145.38;5065012;28;20208;-51
2022/04/30 04:59:02;;;;;;;31.43;20.07;;;;;;;10.41;100.00;99152.38;5063917;28;20230;-51
2022/04/30 05:01:29;;;;;;;34.50;20.87;;;;;;;10.40;100.00;99146.34;5064672;28;20188;-50
2022/04/30 05:03:57;;;;;;;31.30;19.87;;;;;;;10.40;100.00;99148.13;5061460;28;20276;-52
2022/04/30 05:06:24;;;;;;;29.77;19.13;;;;;;;10.37;100.00;99149.19;5064012;28;20273;-50
2022/04/30 05:08:52;;;;;;;28.57;19.67;;;;;;;10.39;100.00;99146.44;5068443;28;20187;-50
2022/04/30 05:11:20;;;;;;;36.50;19.97;;;;;;;10.41;100.00;99154.97;5066937;28;20202;-50
2022/04/30 05:13:47;;;;;;;27.73;19.27;;;;;;;10.41;100.00;99154.97;5068717;28;20216;-51
2022/04/30 05:16:14;;;;;;;28.57;19.57;;;;;;;10.38;100.00;99160.44;5066379;28;20218;-50
2022/04/30 05:18:41;;;;;;;39.63;24.80;;;;;;;10.39;100.00;99156.88;5068885;28;20199;-51
2022/04/30 05:21:08;;;;;;;32.20;21.43;;;;;;;10.46;100.00;99160.63;5066839;28;20308;-50
2022/04/30 05:23:36;;;;;;;31.70;21.43;;;;;;;10.47;100.00;99157.88;5066420;28;20226;-51
2022/04/30 05:26:04;;;;;;;29.07;19.93;;;;;;;10.50;100.00;99154.16;5067359;28;20208;-49
2022/04/30 05:28:31;;;;;;;31.93;18.27;;;;;;;10.53;100.00;99148.66;5066653;28;20243;-52
2022/04/30 05:30:59;;;;;;;27.70;19.20;;;;;;;10.54;100.00;99157.34;5062479;28;20191;-51
2022/04/30 05:33:26;;;;;;;34.50;23.33;;;;;;;10.60;100.00;99156.78;5062942;28;20188;-51
2022/04/30 05:35:57;;;;;;;27.63;19.43;;;;;;;10.68;100.00;99154.28;5060459;28;20224;-49
2022/04/30 05:38:24;;;;;;;29.73;19.73;;;;;;;10.78;100.00;99160.31;5063194;28;20253;-50
2022/04/30 05:40:51;;;;;;;29.10;19.70;;;;;;;10.78;100.00;99160.31;5067763;28;20248;-50
2022/04/30 05:43:20;;;;;;;32.17;20.83;;;;;;;10.84;100.00;99163.34;5066134;28;20268;-49
2022/04/30 05:45:47;;;;;;;29.23;19.57;;;;;;;10.90;100.00;99168.84;5068292;28;20275;-50
2022/04/30 05:48:14;;;;;;;27.07;19.07;;;;;;;11.01;100.00;99162.63;5065681;28;20211;-50
2022/04/30 05:50:42;;;;;;;27.87;18.17;;;;;;;11.10;100.00;99166.22;5068441;28;20667;-50
2022/04/30 05:53:08;;;;;;;26.43;18.23;;;;;;;11.17;100.00;99174.31;5066466;28;20222;-50
2022/04/30 05:55:35;;;;;;;29.23;19.87;;;;;;;11.23;100.00;99179.78;5067574;28;20566;-49
2022/04/30 05:58:03;;;;;;;30.27;19.00;;;;;;;11.26;99.42;99177.84;5066816;28;20674;-50
2022/04/30 06:00:31;;;;;;;25.53;17.80;;;;;;;11.29;95.44;99186.25;5067309;28;20194;-50
2022/04/30 06:02:59;;;;;;;24.40;17.33;;;;;;;11.32;94.51;99185.97;5061973;28;20276;-50
2022/04/30 06:05:26;;;;;;;25.90;18.20;;;;;;;11.28;95.03;99188.97;5062166;28;20212;-50
2022/04/30 06:07:53;;;;;;;27.60;17.70;;;;;;;11.36;94.97;99200.38;5061700;28;20193;-50
2022/04/30 06:10:21;;;;;;;26.97;18.00;;;;;;;11.46;92.99;99200.34;5063260;28;20199;-50
2022/04/30 06:12:47;;;;;;;27.83;19.20;;;;;;;11.46;94.24;99196.94;5061705;28;20672;-52
2022/04/30 06:15:14;;;;;;;26.40;18.13;;;;;;;11.50;94.02;99206.13;5060383;28;20227;-51
2022/04/30 06:17:42;;;;;;;28.00;18.80;;;;;;;11.46;93.43;99204.78;5061636;28;20611;-51
2022/04/30 06:20:11;;;;;;;30.03;19.37;;;;;;;11.47;91.68;99209.03;5067626;28;20193;-51
2022/04/30 06:22:39;;;;;;;28.93;18.93;;;;;;;11.49;94.00;99201.88;5066186;28;20196;-50
2022/04/30 06:25:06;;;;;;;26.27;18.20;;;;;;;11.61;90.85;99213.81;5064277;28;20211;-50
2022/04/30 06:27:34;;;;;;;27.37;17.63;;;;;;;11.46;91.31;99215.22;5063873;28;20230;-50
2022/04/30 06:30:01;;;;;;;28.17;18.97;;;;;;;11.24;94.30;99217.19;5063975;28;20198;-50
2022/04/30 06:32:48;;;;;;;29.23;20.20;;;;;;;11.25;95.36;99213.63;5064218;28;20202;-51
2022/04/30 06:35:15;;;;;;;28.97;19.00;;;;;;;11.07;95.62;99222.16;5061900;28;20207;-50
2022/04/30 06:37:42;;;;;;;34.57;23.20;;;;;;;11.26;95.09;99215.28;5063688;28;20192;-50
2022/04/30 06:40:10;;;;;;;28.80;19.27;;;;;;;11.37;93.50;99219.50;5063906;28;20188;-51
2022/04/30 06:42:41;;;;;;;26.00;17.00;;;;;;;11.35;92.01;99221.44;5061817;28;20219;-50
2022/04/30 06:45:10;;;;;;;24.57;17.33;;;;;;;11.23;93.07;99228.63;5061006;28;20314;-53
2022/04/30 06:47:38;;;;;;;27.17;18.37;;;;;;;11.32;93.37;99227.78;5061949;28;20647;-51
2022/04/30 06:50:08;;;;;;;26.40;17.03;;;;;;;11.33;93.45;99225.97;5062988;28;20273;-50
2022/04/30 06:57:07;;;;;;;20.73;14.53;;;;;;;11.30;91.99;99232.31;5064052;28;20435;-50
2022/04/30 06:58:40;;;;;;;19.38;14.55;;;;;;;11.45;89.91;99240.53;5040585;28;20556;-50
2022/04/30 07:01:28;;;;;;;23.83;14.70;;;;;;;11.34;89.96;99243.31;5063418;28;20191;-50
2022/04/30 07:04:01;;;;;;;17.77;13.23;;;;;;;11.51;89.41;99239.97;5063491;28;20586;-50
2022/04/30 07:06:30;;;;;;;22.93;14.10;;;;;;;11.47;88.81;99246.44;5063459;28;20674;-52
2022/04/30 07:08:58;;;;;;;23.73;15.77;;;;;;;11.41;89.89;99246.19;5061882;28;20192;-50
2022/04/30 07:11:25;;;;;;;17.93;13.70;;;;;;;11.48;89.89;99242.06;5062576;28;20183;-50
2022/04/30 07:13:53;;;;;;;22.10;15.10;;;;;;;11.69;89.04;99248.84;5061737;28;20591;-51
2022/04/30 07:16:20;;;;;;;21.57;14.47;;;;;;;11.69;88.32;99251.47;5061760;28;20211;-50
2022/04/30 07:18:48;;;;;;;21.40;14.47;;;;;;;11.50;88.75;99253.19;5062039;28;20611;-51
2022/04/30 07:21:15;;;;;;;17.43;13.57;;;;;;;11.40;89.51;99255.81;5063566;28;20195;-52
2022/04/30 07:23:45;;;;;;;19.67;13.53;;;;;;;11.57;87.93;99248.22;5061688;28;20184;-50
2022/04/30 07:26:11;;;;;;;18.87;13.50;;;;;;;11.50;90.03;99253.19;5061050;28;20673;-50
2022/04/30 07:28:38;;;;;;;18.17;13.03;;;;;;;11.57;89.72;99251.66;5061374;28;20669;-50
2022/04/30 07:31:06;;;;;;;20.87;14.33;;;;;;;11.60;88.71;99255.78;5060961;28;20229;-50
2022/04/30 07:33:34;;;;;;;20.60;13.70;;;;;;;11.56;88.21;99259.63;5063266;28;20639;-50
2022/04/30 07:36:19;;;;;;;21.50;12.83;;;;;;;11.53;89.24;99260.75;5061612;28;20239;-50
2022/04/30 07:38:48;;;;;;;18.43;13.27;;;;;;;11.35;89.41;99258.84;5061907;28;20183;-49
2022/04/30 07:41:15;;;;;;;21.57;15.17;;;;;;;11.36;90.32;99262.28;5063188;28;20195;-50
2022/04/30 07:43:42;;;;;;;76.70;46.80;;;;;;;11.27;89.84;99265.72;5061400;28;20664;-50
2022/04/30 07:46:09;;;;;;;18.73;14.07;;;;;;;11.50;89.84;99267.06;5060262;28;20186;-49
2022/04/30 07:48:37;;;;;;;26.70;16.70;;;;;;;11.60;89.53;99269.69;5063158;28;20182;-50
2022/04/30 07:51:13;;;;;;;23.00;17.17;;;;;;;11.48;88.26;99270.81;5061872;28;20652;-50
2022/04/30 07:53:59;;;;;;;22.03;13.97;;;;;;;11.65;88.25;99267.47;5063157;28;20264;-52
2022/04/30 07:56:27;;;;;;;26.70;21.37;;;;;;;11.49;88.04;99275.06;5062056;28;20191;-49
2022/04/30 07:58:54;;;;;;;21.83;16.80;;;;;;;11.55;89.10;99277.13;5060815;28;20185;-50
2022/04/30 08:01:21;;;;;;;24.95;16.27;;;;;;;11.52;90.42;99275.59;5062161;28;20483;-49
2022/04/30 08:03:49;;;;;;;21.33;15.30;;;;;;;11.58;88.05;99270.78;5061885;28;20249;-49
2022/04/30 08:06:16;;;;;;;19.73;14.37;;;;;;;11.89;90.34;99281.03;5060649;28;20208;-49
2022/04/30 08:08:43;;;;;;;22.90;15.37;;;;;;;12.01;86.54;99284.28;5061989;28;20180;-50
2022/04/30 08:11:13;;;;;;;40.37;35.50;;;;;;;12.05;86.60;99280.44;5062598;28;20534;-49
2022/04/30 08:13:41;;;;;;;24.93;18.83;;;;;;;12.22;84.81;99279.66;5060825;28;20548;-49
2022/04/30 08:16:09;;;;;;;19.70;14.37;;;;;;;12.25;85.89;99283.78;5061089;28;20236;-49
2022/04/30 08:18:37;;;;;;;18.83;12.87;;;;;;;12.45;83.82;99279.28;5062464;28;20600;-49
2022/04/30 08:21:05;;;;;;;17.87;13.07;;;;;;;12.57;84.36;99286.94;5061722;28;20647;-49
2022/04/30 08:23:34;;;;;;;17.60;12.63;;;;;;;12.67;83.75;99296.34;5060323;28;20315;-50
2022/04/30 08:26:01;;;;;;;18.27;12.37;;;;;;;12.73;80.34;99288.88;5061024;28;20193;-51
2022/04/30 08:28:30;;;;;;;18.50;13.17;;;;;;;12.65;84.16;99281.78;5060998;28;20258;-50
2022/04/30 08:30:58;;;;;;;19.67;12.97;;;;;;;12.84;81.56;99286.84;5062897;28;20194;-49
2022/04/30 08:33:26;;;;;;;19.93;13.93;;;;;;;13.06;80.84;99300.50;5061357;28;20190;-49
2022/04/30 08:35:53;;;;;;;20.87;13.57;;;;;;;13.04;81.13;99291.94;5060236;28;20214;-50
2022/04/30 08:38:20;;;;;;;17.90;12.67;;;;;;;13.30;77.30;99293.81;5062865;28;20194;-49
2022/04/30 08:40:48;;;;;;;19.17;13.77;;;;;;;12.32;80.71;99289.25;5065028;28;20643;-49
2022/04/30 08:43:16;;;;;;;22.97;16.03;;;;;;;11.81;85.39;99289.56;5066463;28;20193;-49
2022/04/30 08:45:46;;;;;;;25.07;15.70;;;;;;;11.75;87.70;99293.59;5064787;28;20215;-51
2022/04/30 08:48:15;;;;;;;28.80;18.83;;;;;;;11.72;87.73;99299.09;5063525;28;20200;-49
2022/04/30 08:50:44;;;;;;;28.90;19.67;;;;;;;11.82;86.77;99293.81;5070266;28;20193;-49
2022/04/30 08:53:13;;;;;;;25.97;17.73;;;;;;;12.18;84.37;99293.19;5067041;28;20192;-50
2022/04/30 08:55:40;;;;;;;24.67;17.20;;;;;;;12.08;86.08;99290.59;5063090;28;20205;-49
2022/04/30 08:58:08;;;;;;;39.90;31.87;;;;;;;11.79;84.90;99286.25;5064384;28;20613;-49
2022/04/30 09:00:40;;;;;;;26.33;18.43;;;;;;;11.89;86.96;99292.28;5063969;28;20200;-49
2022/04/30 09:03:13;;;;;;;29.53;19.57;;;;;;;11.93;86.67;99291.03;5064503;28;20230;-51
2022/04/30 09:05:40;;;;;;;29.13;20.00;;;;;;;11.86;87.55;99292.56;5065372;28;20207;-50
2022/04/30 09:08:08;;;;;;;31.10;20.73;;;;;;;11.70;87.06;99298.41;5065652;28;20633;-49
2022/04/30 09:10:37;;;;;;;27.37;20.93;;;;;;;11.63;88.56;99294.72;5064254;28;20202;-49
2022/04/30 09:13:10;;;;;;;29.27;20.30;;;;;;;11.45;89.92;99292.00;5063901;28;20256;-49
2022/04/30 09:15:39;;;;;;;35.30;24.43;;;;;;;11.49;90.07;99294.19;5066100;28;20205;-49
2022/04/30 09:18:08;;;;;;;33.43;22.57;;;;;;;11.55;90.03;99297.19;5064688;28;20574;-50
2022/04/30 09:20:45;;;;;;;31.10;21.50;;;;;;;11.40;90.00;99295.03;5064567;28;20187;-49
2022/04/30 09:23:24;;;;;;;35.83;23.33;;;;;;;11.35;91.68;99292.00;5065601;28;20191;-50
2022/04/30 09:25:53;;;;;;;36.00;23.93;;;;;;;11.39;91.47;99293.38;5065439;28;20232;-49
2022/04/30 09:28:25;;;;;;;41.37;25.70;;;;;;;11.49;91.02;99288.94;5063994;28;20180;-49
2022/04/30 09:31:07;;;;;;;36.40;25.03;;;;;;;11.25;91.79;99294.63;5063600;28;20269;-49
2022/04/30 09:33:35;;;;;;;41.03;25.77;;;;;;;11.13;93.21;99295.72;5064538;28;20711;-49
2022/04/30 09:38:50;;;;;;;38.33;24.83;;;;;;;10.87;92.76;99296.28;5064996;28;20581;-49
2022/04/30 09:41:22;;;;;;;38.63;24.23;;;;;;;10.83;93.97;99300.13;5063124;28;20209;-49
2022/04/30 09:44:00;;;;;;;38.00;25.23;;;;;;;10.97;94.84;99299.72;5063531;28;20201;-49
2022/04/30 09:46:28;;;;;;;42.13;25.40;;;;;;;10.65;95.71;99294.75;5064580;28;20191;-49
2022/04/30 09:54:28;;;;;;;37.80;22.97;;;;;;;11.18;91.74;99299.56;5064345;28;20671;-49
2022/04/30 09:56:59;;;;;;;38.17;22.60;;;;;;;10.94;92.47;99289.53;5063194;28;20235;-49
2022/04/30 09:59:27;;;;;;;31.93;21.90;;;;;;;11.11;92.19;99293.28;5064101;28;20248;-49
2022/04/30 10:02:14;;;;;;;32.87;21.33;;;;;;;10.86;92.12;99298.06;5065298;28;20205;-49
2022/04/30 10:04:45;;;;;;;35.50;22.10;;;;;;;10.55;94.75;99297.34;5063070;28;20498;-49
2022/04/30 10:07:18;;;;;;;34.03;22.07;;;;;;;10.70;94.91;99295.97;5061864;28;20214;-49
2022/04/30 10:09:52;;;;;;;34.27;20.47;;;;;;;10.95;91.62;99299.03;5063820;28;20635;-49
2022/04/30 10:12:26;;;;;;;30.60;21.80;;;;;;;10.86;91.49;99300.69;5061762;28;20200;-49
2022/04/30 10:15:05;;;;;;;31.90;21.03;;;;;;;11.07;89.57;99303.16;5062416;28;20690;-49
2022/04/30 10:17:34;;;;;;;28.80;20.20;;;;;;;11.14;88.93;99295.59;5064550;28;20242;-49
2022/04/30 10:20:06;;;;;;;29.23;20.03;;;;;;;11.08;89.09;99296.97;5062944;28;20742;-49
2022/04/30 10:22:36;;;;;;;26.50;19.97;;;;;;;11.08;90.91;99290.94;5063056;28;20520;-49
2022/04/30 10:25:03;;;;;;;32.87;19.97;;;;;;;11.48;88.01;99289.91;5065180;28;20237;-49
2022/04/30 10:27:40;;;;;;;32.77;19.27;;;;;;;12.23;82.82;99294.41;5056188;28;20576;-49
2022/04/30 10:30:18;;;;;;;27.00;18.47;;;;;;;11.78;84.66;99290.69;5054118;28;20199;-49
2022/04/30 10:32:56;;;;;;;27.83;19.67;;;;;;;11.77;83.78;99286.41;5054071;28;20199;-49
2022/04/30 10:35:29;;;;;;;30.83;21.37;;;;;;;11.65;86.62;99288.38;5069710;28;20217;-50
2022/04/30 10:38:09;;;;;;;27.43;20.13;;;;;;;11.91;85.06;99287.75;5061261;28;20226;-49
2022/04/30 10:40:41;;;;;;;28.37;20.00;;;;;;;11.82;85.77;99283.38;5053947;28;20198;-49
2022/04/30 10:43:16;;;;;;;26.73;19.17;;;;;;;11.52;85.54;99290.47;5053897;28;20211;-49
2022/04/30 10:45:43;;;;;;;25.23;18.20;;;;;;;11.57;86.21;99290.88;5070066;28;20218;-49
2022/04/30 10:48:10;;;;;;;23.63;17.87;;;;;;;11.94;82.86;99284.84;5053815;28;20188;-49
2022/04/30 10:50:38;;;;;;;23.27;18.33;;;;;;;12.09;81.18;99282.63;5052200;28;20202;-49
2022/04/30 10:53:10;;;;;;;23.40;19.50;;;;;;;11.17;86.38;99284.84;5053663;28;20192;-49
2022/04/30 10:55:39;;;;;;;24.03;18.20;;;;;;;11.39;86.41;99282.91;5069875;28;20320;-49
2022/04/30 10:58:06;;;;;;;25.60;18.33;;;;;;;11.52;86.07;99283.44;5053384;28;20211;-49
2022/04/30 11:00:33;;;;;;;26.90;20.03;;;;;;;11.42;86.64;99282.63;5052726;28;20196;-49
2022/04/30 11:03:08;;;;;;;27.87;20.47;;;;;;;11.71;84.20;99278.31;5053210;28;20195;-49
2022/04/30 11:05:36;;;;;;;27.60;20.07;;;;;;;11.26;87.13;99279.75;5068139;28;20221;-49
2022/04/30 11:08:04;;;;;;;26.67;19.83;;;;;;;11.64;85.33;99278.06;5053360;28;20209;-49
2022/04/30 11:10:33;;;;;;;26.10;20.00;;;;;;;11.94;83.95;99274.38;5053306;28;20184;-49
2022/04/30 11:13:07;;;;;;;25.70;18.63;;;;;;;12.37;81.90;99276.56;5062639;28;20561;-50
2022/04/30 11:15:34;;;;;;;24.07;18.30;;;;;;;12.80;79.81;99277.66;5061857;28;20218;-49
2022/04/30 11:18:01;;;;;;;24.70;16.77;;;;;;;13.34;76.43;99278.59;5073371;28;20211;-49
2022/04/30 11:20:29;;;;;;;22.07;16.73;;;;;;;13.29;76.08;99271.19;5073262;28;20191;-50
2022/04/30 11:22:57;;;;;;;22.30;17.90;;;;;;;12.50;78.60;99268.34;5073249;28;20197;-49
2022/04/30 11:25:35;;;;;;;21.93;17.20;;;;;;;12.17;80.82;99271.41;5072725;28;20270;-49
2022/04/30 11:28:06;;;;;;;24.23;19.00;;;;;;;12.13;81.63;99269.25;5073079;28;20648;-50
2022/04/30 11:30:36;;;;;;;23.40;18.50;;;;;;;12.14;80.77;99269.09;5073033;28;20649;-48
2022/04/30 11:33:04;;;;;;;26.67;19.53;;;;;;;11.89;81.46;99266.13;5073262;28;20524;-48
2022/04/30 11:35:31;;;;;;;25.57;20.50;;;;;;;11.59;84.25;99269.81;5072136;28;20213;-48
2022/04/30 11:37:59;;;;;;;26.50;20.40;;;;;;;11.41;86.41;99269.72;5072949;28;20222;-48
2022/04/30 11:40:26;;;;;;;28.57;21.27;;;;;;;11.50;86.93;99277.53;5072870;28;20194;-50
2022/04/30 11:42:58;;;;;;;30.23;20.33;;;;;;;11.29;86.48;99269.03;5072970;28;20618;-48
2022/04/30 11:45:29;;;;;;;27.73;20.33;;;;;;;10.88;89.16;99270.03;5072347;28;20641;-48
2022/04/30 11:47:56;;;;;;;31.33;22.50;;;;;;;10.75;90.97;99269.47;5072918;28;20187;-49
2022/04/30 11:50:23;;;;;;;30.43;21.53;;;;;;;10.99;91.55;99271.66;5072730;28;20190;-49
2022/04/30 11:52:50;;;;;;;31.03;20.13;;;;;;;11.09;89.28;99271.69;5072717;28;20780;-49
2022/04/30 11:55:18;;;;;;;28.03;21.23;;;;;;;11.34;88.83;99272.88;5072313;28;20201;-49
2022/04/30 11:57:45;;;;;;;29.93;20.30;;;;;;;11.43;86.32;99276.44;5072719;28;20694;-48
2022/04/30 12:00:16;;;;;;;29.27;20.67;;;;;;;11.20;86.77;99273.31;5072788;28;20182;-48